createdAt,value
2019-03-16T00:00:15.272Z,49.45
2019-03-16T00:02:45.180Z,48.17
2019-03-16T00:05:14.076Z,53.83
2019-03-16T00:07:42.981Z,51.20
2019-03-16T00:10:11.963Z,49.90
2019-03-16T00:12:40.958Z,50.17
2019-03-16T00:15:10.058Z,48.25
2019-03-16T00:17:38.941Z,47.98
2019-03-16T00:20:10.185Z,56.02
2019-03-16T00:22:39.079Z,51.63
2019-03-16T00:25:09.405Z,47.80
2019-03-16T00:27:38.294Z,54.98
2019-03-16T00:30:10.359Z,42.25
2019-03-16T00:32:39.352Z,44.85
2019-03-16T00:35:08.276Z,43.38
2019-03-16T00:37:37.338Z,41.83
2019-03-16T00:40:08.794Z,45.98
2019-03-16T00:42:37.782Z,41.07
2019-03-16T00:45:09.191Z,41.23
2019-03-16T00:47:38.225Z,39.57
2019-03-16T00:50:09.654Z,39.18
2019-03-16T00:52:38.670Z,38.87
2019-03-16T00:55:09.506Z,37.78
2019-03-16T00:57:38.500Z,35.80
2019-03-16T01:00:10.567Z,42.30
2019-03-16T01:02:39.392Z,38.98
2019-03-16T01:05:10.086Z,36.88
2019-03-16T01:07:39.079Z,39.35
2019-03-16T01:10:09.608Z,39.88
2019-03-16T01:12:38.600Z,39.75
2019-03-16T01:15:12.607Z,44.55
2019-03-16T01:17:41.503Z,39.92
2019-03-16T01:20:11.532Z,42.55
2019-03-16T01:22:40.511Z,41.60
2019-03-16T01:25:10.540Z,37.93
2019-03-16T01:27:39.625Z,41.05
2019-03-16T01:30:16.179Z,40.85
2019-03-16T01:32:45.029Z,38.60
2019-03-16T01:35:13.978Z,36.40
2019-03-16T01:37:43.160Z,41.37
2019-03-16T01:40:12.807Z,40.75
2019-03-16T01:42:41.880Z,40.55
2019-03-16T01:45:11.795Z,38.92
2019-03-16T01:47:40.786Z,38.83
2019-03-16T01:50:11.324Z,41.00
2019-03-16T01:52:40.314Z,38.15
2019-03-16T01:55:09.710Z,36.45
2019-03-16T01:57:42.597Z,44.77
2019-03-16T02:00:13.716Z,36.50
2019-03-16T02:02:54.557Z,39.63
2019-03-16T02:05:13.266Z,38.63
2019-03-16T02:07:42.258Z,39.35
2019-03-16T02:10:11.226Z,38.92
2019-03-16T02:12:40.131Z,39.27
2019-03-16T02:15:09.431Z,36.35
2019-03-16T02:17:38.534Z,35.75
2019-03-16T02:20:09.064Z,36.38
2019-03-16T02:22:38.077Z,33.70
2019-03-16T02:25:08.209Z,36.95
2019-03-16T02:27:37.271Z,35.83
2019-03-16T02:30:13.057Z,34.80
2019-03-16T02:32:42.018Z,37.65
2019-03-16T02:35:10.899Z,35.03
2019-03-16T02:37:39.796Z,36.30
2019-03-16T02:40:18.553Z,33.50
2019-03-16T02:42:47.611Z,30.88
2019-03-16T02:45:22.625Z,31.60
2019-03-16T02:47:51.643Z,32.55
2019-03-16T02:50:20.641Z,31.00
2019-03-16T02:52:50.113Z,34.63
2019-03-16T02:55:19.546Z,33.83
2019-03-16T02:57:48.372Z,36.10
2019-03-16T03:00:17.326Z,32.10
2019-03-16T03:02:46.219Z,30.57
2019-03-16T03:05:15.209Z,36.13
2019-03-16T03:07:44.201Z,31.62
2019-03-16T03:10:15.037Z,31.80
2019-03-16T03:12:44.052Z,31.82
2019-03-16T03:15:13.106Z,33.00
2019-03-16T03:17:42.066Z,30.37
2019-03-16T03:20:11.504Z,34.55
2019-03-16T03:22:40.388Z,33.55
2019-03-16T03:25:09.386Z,31.75
2019-03-16T03:27:38.298Z,33.18
2019-03-16T03:30:10.775Z,30.15
2019-03-16T03:35:09.589Z,28.23
2019-03-16T03:37:38.571Z,30.57
2019-03-16T03:40:09.663Z,28.62
2019-03-16T03:42:38.706Z,28.50
2019-03-16T03:45:10.566Z,29.40
2019-03-16T03:47:39.457Z,28.40
2019-03-16T03:50:10.680Z,28.57
2019-03-16T03:52:39.592Z,29.45
2019-03-16T03:55:10.619Z,25.10
2019-03-16T03:57:39.729Z,26.17
2019-03-16T04:00:11.678Z,24.80
2019-03-16T04:02:40.788Z,28.17
2019-03-16T04:05:09.848Z,27.25
2019-03-16T04:07:39.081Z,30.85
2019-03-16T04:10:09.622Z,25.92
2019-03-16T04:12:38.581Z,27.30
2019-03-16T04:15:10.066Z,27.75
2019-03-16T04:17:39.078Z,26.07
2019-03-16T04:20:10.893Z,25.62
2019-03-16T04:22:39.904Z,25.23
2019-03-16T04:25:08.900Z,28.45
2019-03-16T04:27:37.802Z,28.80
2019-03-16T04:30:12.101Z,27.30
2019-03-16T04:32:40.995Z,25.90
2019-03-16T04:35:09.968Z,31.55
2019-03-16T04:37:38.980Z,31.02
2019-03-16T04:40:09.792Z,26.87
2019-03-16T04:42:38.809Z,31.48
2019-03-16T04:45:13.024Z,29.27
2019-03-16T04:47:41.852Z,29.05
2019-03-16T04:50:13.814Z,28.35
2019-03-16T04:52:42.771Z,26.42
2019-03-16T04:55:11.763Z,26.42
2019-03-16T04:57:40.755Z,29.42
2019-03-16T05:00:11.910Z,24.20
2019-03-16T05:02:40.892Z,24.02
2019-03-16T05:05:09.884Z,24.30
2019-03-16T05:07:38.900Z,22.70
2019-03-16T05:10:10.634Z,22.10
2019-03-16T05:12:39.628Z,25.27
2019-03-16T05:15:09.789Z,24.23
2019-03-16T05:17:38.843Z,24.12
2019-03-16T05:20:10.479Z,23.77
2019-03-16T05:22:39.594Z,24.47
2019-03-16T05:25:12.340Z,24.00
2019-03-16T05:27:41.268Z,25.60
2019-03-16T05:30:16.711Z,21.30
2019-03-16T05:32:45.792Z,19.92
2019-03-16T05:35:14.795Z,23.50
2019-03-16T05:37:43.689Z,19.23
2019-03-16T05:40:12.688Z,20.02
2019-03-16T05:42:41.678Z,18.15
2019-03-16T05:45:10.979Z,21.12
2019-03-16T05:47:39.972Z,20.12
2019-03-16T05:50:13.715Z,18.85
2019-03-16T05:52:42.662Z,20.75
2019-03-16T05:55:11.969Z,25.10
2019-03-16T05:57:40.968Z,35.60
2019-03-16T06:00:14.377Z,25.68
2019-03-16T06:02:43.457Z,19.32
2019-03-16T06:05:12.545Z,20.45
2019-03-16T06:07:41.439Z,26.15
2019-03-16T06:10:11.473Z,20.65
2019-03-16T06:12:40.447Z,21.10
2019-03-16T06:15:10.974Z,18.05
2019-03-16T06:17:39.867Z,19.55
2019-03-16T06:20:13.776Z,22.22
2019-03-16T06:22:42.769Z,20.35
2019-03-16T06:25:11.866Z,19.80
2019-03-16T06:27:40.755Z,19.90
2019-03-16T06:30:12.612Z,23.85
2019-03-16T06:32:41.506Z,23.70
2019-03-16T06:35:23.392Z,26.27
2019-03-16T06:37:42.563Z,27.65
2019-03-16T06:40:12.993Z,30.52
2019-03-16T06:42:42.087Z,37.67
2019-03-16T06:45:12.201Z,30.88
2019-03-16T06:47:41.091Z,24.35
2019-03-16T06:50:12.723Z,23.73
2019-03-16T06:52:41.748Z,25.65
2019-03-16T06:55:11.049Z,21.20
2019-03-16T06:57:40.041Z,26.65
2019-03-16T07:00:19.271Z,25.60
2019-03-16T07:02:48.162Z,31.27
2019-03-16T07:05:20.518Z,33.53
2019-03-16T07:07:47.687Z,34.38
2019-03-16T07:10:16.577Z,23.20
2019-03-16T07:12:45.464Z,21.12
2019-03-16T07:15:15.494Z,21.65
2019-03-16T07:17:44.580Z,26.02
2019-03-16T07:20:16.952Z,25.27
2019-03-16T07:25:14.020Z,31.35
2019-03-16T07:27:43.013Z,30.23
2019-03-16T07:30:14.244Z,31.05
2019-03-16T07:32:43.147Z,22.93
2019-03-16T07:35:12.138Z,27.95
2019-03-16T07:37:41.131Z,18.35
2019-03-16T07:40:14.121Z,21.77
2019-03-16T07:42:43.111Z,22.13
2019-03-16T07:45:13.004Z,24.05
2019-03-16T07:47:42.117Z,25.90
2019-03-16T07:50:14.474Z,19.92
2019-03-16T07:52:44.188Z,24.02
2019-03-16T07:55:13.304Z,24.23
2019-03-16T07:57:42.913Z,19.42
2019-03-16T08:00:13.113Z,17.17
2019-03-16T08:02:42.123Z,23.12
2019-03-16T08:05:18.298Z,212.88
2019-03-16T08:07:41.984Z,241.25
2019-03-16T08:10:11.611Z,344.60
2019-03-16T08:12:40.563Z,185.95
2019-03-16T08:15:11.008Z,41.42
2019-03-16T08:17:40.074Z,141.07
2019-03-16T08:20:10.109Z,35.83
2019-03-16T08:22:39.080Z,48.70
2019-03-16T08:25:08.708Z,57.05
2019-03-16T08:27:37.683Z,76.67
2019-03-16T08:30:08.859Z,54.23
2019-03-16T08:32:37.817Z,89.50
2019-03-16T08:35:26.071Z,28.77
2019-03-16T08:37:55.069Z,29.67
2019-03-16T08:40:24.058Z,41.08
2019-03-16T08:42:53.049Z,29.12
2019-03-16T08:45:21.928Z,37.28
2019-03-16T08:47:50.796Z,24.00
2019-03-16T08:50:19.719Z,20.92
2019-03-16T08:52:49.018Z,21.60
2019-03-16T08:55:17.992Z,88.47
2019-03-16T08:57:47.003Z,177.12
2019-03-16T09:00:15.997Z,20.82
2019-03-16T09:02:44.990Z,54.93
2019-03-16T09:05:13.982Z,19.98
2019-03-16T09:07:42.976Z,86.42
2019-03-16T09:10:11.864Z,102.72
2019-03-16T09:12:40.753Z,23.90
2019-03-16T09:15:14.337Z,15.80
2019-03-16T09:17:43.347Z,15.80
2019-03-16T09:20:12.244Z,15.63
2019-03-16T09:22:41.237Z,11.57
2019-03-16T09:25:10.965Z,13.30
2019-03-16T09:27:40.143Z,10.85
2019-03-16T09:30:16.362Z,13.68
2019-03-16T09:32:45.275Z,11.50
2019-03-16T09:35:14.188Z,10.60
2019-03-16T09:37:43.180Z,14.68
2019-03-16T09:40:12.176Z,35.05
2019-03-16T09:42:41.176Z,54.13
2019-03-16T09:45:13.829Z,17.45
2019-03-16T09:47:42.729Z,13.38
2019-03-16T09:50:12.035Z,13.13
2019-03-16T09:52:41.134Z,10.63
2019-03-16T09:55:15.754Z,15.15
2019-03-16T09:57:44.650Z,10.90
2019-03-16T10:00:17.864Z,16.75
2019-03-16T10:02:46.835Z,82.53
2019-03-16T10:05:15.928Z,16.05
2019-03-16T10:07:44.922Z,26.60
2019-03-16T10:10:15.160Z,14.95
2019-03-16T10:12:44.136Z,14.18
2019-03-16T10:15:13.989Z,13.25
2019-03-16T10:17:43.052Z,10.32
2019-03-16T10:20:14.191Z,10.88
2019-03-16T10:22:43.096Z,10.65
2019-03-16T10:25:12.174Z,12.50
2019-03-16T10:27:41.048Z,12.73
2019-03-16T10:30:14.390Z,14.18
2019-03-16T10:32:43.454Z,17.52
2019-03-16T10:35:12.452Z,17.17
2019-03-16T10:37:41.440Z,18.45
2019-03-16T10:40:11.886Z,17.37
2019-03-16T10:42:40.963Z,16.23
2019-03-16T10:45:11.817Z,16.12
2019-03-16T10:47:40.793Z,16.57
2019-03-16T10:50:11.424Z,12.98
2019-03-16T10:52:40.295Z,22.10
2019-03-16T10:55:09.514Z,15.88
2019-03-16T10:57:38.390Z,19.60
2019-03-16T11:00:11.066Z,11.30
2019-03-16T11:02:46.731Z,12.93
2019-03-16T11:05:15.749Z,10.40
2019-03-16T11:07:44.718Z,11.22
2019-03-16T11:10:14.750Z,18.80
2019-03-16T11:12:43.727Z,14.25
2019-03-16T11:15:13.753Z,19.42
2019-03-16T11:17:42.907Z,23.90
2019-03-16T11:20:16.749Z,36.53
2019-03-16T11:22:45.742Z,29.42
2019-03-16T11:25:14.739Z,36.75
2019-03-16T11:27:43.728Z,29.90
2019-03-16T11:30:14.563Z,24.70
2019-03-16T11:32:43.656Z,26.73
2019-03-16T11:35:12.858Z,17.45
2019-03-16T11:37:41.851Z,21.68
2019-03-16T11:40:15.652Z,18.40
2019-03-16T11:42:44.545Z,23.83
2019-03-16T11:45:16.804Z,18.98
2019-03-16T11:47:44.681Z,14.23
2019-03-16T11:50:16.646Z,12.37
2019-03-16T11:52:45.641Z,21.73
2019-03-16T11:55:15.094Z,17.82
2019-03-16T11:57:44.032Z,12.23
2019-03-16T12:00:14.462Z,28.38
2019-03-16T12:02:43.456Z,21.95
2019-03-16T12:05:12.755Z,15.38
2019-03-16T12:07:41.750Z,17.87
2019-03-16T12:10:14.924Z,15.90
2019-03-16T12:12:43.830Z,17.82
2019-03-16T12:15:13.668Z,24.70
2019-03-16T12:17:42.636Z,25.92
2019-03-16T12:20:19.004Z,14.33
2019-03-16T12:22:48.006Z,20.23
2019-03-16T12:25:16.993Z,17.00
2019-03-16T12:27:45.987Z,46.35
2019-03-16T12:30:15.920Z,19.77
2019-03-16T12:32:44.890Z,34.90
2019-03-16T12:35:13.889Z,23.22
2019-03-16T12:37:42.877Z,12.85
2019-03-16T12:40:16.998Z,18.20
2019-03-16T12:42:46.084Z,19.27
2019-03-16T12:45:16.030Z,11.18
2019-03-16T12:47:44.991Z,29.52
2019-03-16T12:50:14.124Z,16.93
2019-03-16T12:52:43.081Z,9.20
2019-03-16T12:55:12.868Z,7.05
2019-03-16T12:57:41.775Z,8.63
2019-03-16T13:00:13.643Z,10.00
2019-03-16T13:02:42.531Z,8.20
2019-03-16T13:05:11.633Z,7.75
2019-03-16T13:07:40.624Z,9.10
2019-03-16T13:10:11.969Z,18.23
2019-03-16T13:12:40.859Z,7.67
2019-03-16T13:15:10.059Z,7.30
2019-03-16T13:17:38.910Z,4.95
2019-03-16T13:20:15.392Z,8.38
2019-03-16T13:22:44.412Z,10.98
2019-03-16T13:25:13.715Z,15.08
2019-03-16T13:27:42.705Z,16.25
2019-03-16T13:30:14.131Z,6.25
2019-03-16T13:32:43.032Z,9.17
2019-03-16T13:35:12.146Z,14.53
2019-03-16T13:37:41.141Z,10.38
2019-03-16T13:40:17.434Z,11.85
2019-03-16T13:42:46.499Z,13.85
2019-03-16T13:45:15.411Z,11.73
2019-03-16T13:47:44.371Z,10.55
2019-03-16T13:50:17.692Z,20.05
2019-03-16T13:52:47.078Z,11.80
2019-03-16T13:55:16.072Z,18.73
2019-03-16T13:57:45.075Z,14.35
2019-03-16T14:00:19.586Z,7.87
2019-03-16T14:02:48.464Z,8.30
2019-03-16T14:05:17.573Z,12.50
2019-03-16T14:07:46.870Z,9.13
2019-03-16T14:10:18.321Z,13.53
2019-03-16T14:12:47.313Z,48.00
2019-03-16T14:15:16.321Z,23.40
2019-03-16T14:17:45.489Z,9.38
2019-03-16T14:20:15.832Z,18.23
2019-03-16T14:22:44.739Z,20.02
2019-03-16T14:25:13.819Z,23.87
2019-03-16T14:27:42.812Z,31.25
2019-03-16T14:30:29.497Z,14.98
2019-03-16T14:32:46.636Z,9.80
2019-03-16T14:35:15.628Z,13.58
2019-03-16T14:37:44.623Z,10.25
2019-03-16T14:40:14.770Z,57.93
2019-03-16T14:42:45.690Z,34.70
2019-03-16T14:45:33.944Z,17.12
2019-03-16T14:48:03.015Z,7.90
2019-03-16T14:50:32.109Z,6.05
2019-03-16T14:53:01.002Z,8.93
2019-03-16T14:55:29.996Z,35.05
2019-03-16T14:57:59.000Z,33.35
2019-03-16T15:00:37.754Z,31.73
2019-03-16T15:02:58.513Z,19.23
2019-03-16T15:05:27.713Z,27.73
2019-03-16T15:07:56.807Z,20.48
2019-03-16T15:10:25.798Z,13.03
2019-03-16T15:12:54.823Z,8.03
2019-03-16T15:15:23.783Z,10.72
2019-03-16T15:17:52.934Z,12.53
2019-03-16T15:20:21.858Z,13.72
2019-03-16T15:22:53.403Z,10.48
2019-03-16T15:25:21.390Z,7.70
2019-03-16T15:27:50.285Z,12.43
2019-03-16T15:30:23.272Z,13.88
2019-03-16T15:32:52.149Z,26.17
2019-03-16T15:35:21.049Z,15.30
2019-03-16T15:37:51.964Z,20.77
2019-03-16T15:40:21.703Z,19.75
2019-03-16T15:42:50.820Z,20.75
2019-03-16T15:45:24.914Z,12.35
2019-03-16T15:47:53.906Z,37.42
2019-03-16T15:50:22.898Z,24.82
2019-03-16T15:52:51.895Z,23.60
2019-03-16T15:55:20.753Z,24.87
2019-03-16T15:57:49.668Z,43.15
2019-03-16T16:00:19.608Z,53.08
2019-03-16T16:02:48.663Z,26.05
2019-03-16T16:05:17.545Z,12.70
2019-03-16T16:07:46.652Z,12.10
2019-03-16T16:10:17.794Z,11.73
2019-03-16T16:12:46.700Z,33.70
2019-03-16T16:15:18.670Z,16.87
2019-03-16T16:17:47.657Z,23.47
2019-03-16T16:20:19.514Z,12.05
2019-03-16T16:22:48.364Z,11.48
2019-03-16T16:25:17.402Z,17.75
2019-03-16T16:27:46.395Z,41.08
2019-03-16T16:30:16.644Z,24.80
2019-03-16T16:32:45.611Z,21.27
2019-03-16T16:35:15.336Z,26.60
2019-03-16T16:37:44.309Z,16.30
2019-03-16T16:40:20.562Z,17.62
2019-03-16T16:42:49.571Z,20.95
2019-03-16T16:45:18.669Z,19.57
2019-03-16T16:47:47.555Z,36.42
2019-03-16T16:50:22.085Z,51.92
2019-03-16T16:52:51.071Z,33.65
2019-03-16T16:55:20.305Z,18.30
2019-03-16T16:57:49.158Z,22.52
2019-03-16T17:00:22.536Z,12.55
2019-03-16T17:02:51.651Z,13.20
2019-03-16T17:05:20.650Z,15.13
2019-03-16T17:07:49.640Z,10.95
2019-03-16T17:10:18.816Z,15.45
2019-03-16T17:12:47.820Z,16.15
2019-03-16T17:15:23.924Z,14.55
2019-03-16T17:17:52.986Z,12.18
2019-03-16T17:20:24.127Z,17.07
2019-03-16T17:22:53.217Z,14.70
2019-03-16T17:25:22.112Z,11.83
2019-03-16T17:27:54.078Z,13.68
2019-03-16T17:30:27.240Z,16.23
2019-03-16T17:32:56.158Z,25.23
2019-03-16T17:35:25.151Z,15.98
2019-03-16T17:37:54.244Z,28.00
2019-03-16T17:40:23.137Z,37.10
2019-03-16T17:42:52.128Z,59.20
2019-03-16T17:45:21.124Z,19.12
2019-03-16T17:47:50.229Z,28.02
2019-03-16T17:50:19.061Z,40.08
2019-03-16T17:52:47.925Z,20.25
2019-03-16T17:55:17.987Z,16.37
2019-03-16T17:57:47.017Z,14.70
2019-03-16T18:00:16.967Z,25.35
2019-03-16T18:02:51.714Z,25.05
2019-03-16T18:05:17.065Z,23.80
2019-03-16T18:07:46.903Z,27.48
2019-03-16T18:10:16.365Z,34.65
2019-03-16T18:12:45.679Z,24.52
2019-03-16T18:15:19.486Z,20.97
2019-03-16T18:17:48.479Z,14.80
2019-03-16T18:20:18.274Z,10.98
2019-03-16T18:22:48.313Z,22.62
2019-03-16T18:25:17.406Z,12.98
2019-03-16T18:27:46.292Z,13.55
2019-03-16T18:30:25.116Z,11.20
2019-03-16T18:32:54.003Z,8.28
2019-03-16T18:35:22.835Z,10.08
2019-03-16T18:37:51.788Z,8.38
2019-03-16T18:40:20.672Z,14.38
2019-03-16T18:42:49.568Z,16.48
2019-03-16T18:45:23.474Z,14.73
2019-03-16T18:47:52.368Z,11.40
2019-03-16T18:50:21.254Z,20.23
2019-03-16T18:52:50.355Z,27.98
2019-03-16T18:55:19.349Z,20.77
2019-03-16T18:57:56.358Z,13.05
2019-03-16T19:00:25.322Z,12.58
2019-03-16T19:02:54.322Z,10.48
2019-03-16T19:05:23.198Z,10.25
2019-03-16T19:08:11.296Z,16.65
2019-03-16T19:10:40.343Z,16.93
2019-03-16T19:13:10.138Z,20.25
2019-03-16T19:15:39.140Z,13.05
2019-03-16T19:18:08.033Z,14.25
2019-03-16T19:20:36.928Z,19.77
2019-03-16T19:23:06.014Z,14.95
2019-03-16T19:25:35.013Z,11.63
2019-03-16T19:28:03.907Z,12.25
2019-03-16T19:30:32.893Z,7.03
2019-03-16T19:33:01.912Z,24.43
2019-03-16T19:35:30.886Z,20.62
2019-03-16T19:37:59.880Z,27.75
2019-03-16T19:40:28.873Z,22.42
2019-03-16T19:42:57.866Z,15.10
2019-03-16T19:45:26.750Z,6.95
2019-03-16T19:47:55.852Z,13.93
2019-03-16T19:50:24.845Z,10.93
2019-03-16T19:52:53.838Z,11.25
2019-03-16T19:55:22.831Z,9.48
2019-03-16T19:57:51.823Z,21.33
2019-03-16T20:00:20.796Z,11.15
2019-03-16T20:02:51.355Z,9.28
2019-03-16T20:05:20.347Z,4.72
2019-03-16T20:07:49.336Z,6.92
2019-03-16T20:10:19.514Z,6.42
2019-03-16T20:12:48.553Z,7.67
2019-03-16T20:15:17.552Z,12.82
2019-03-16T20:17:46.550Z,13.03
2019-03-16T20:20:16.569Z,13.68
2019-03-16T20:22:45.546Z,15.85
2019-03-16T20:25:14.540Z,14.40
2019-03-16T20:27:43.433Z,13.83
2019-03-16T20:30:15.954Z,9.90
2019-03-16T20:32:50.315Z,6.00
2019-03-16T20:35:16.329Z,10.75
2019-03-16T20:37:45.339Z,7.15
2019-03-16T20:40:17.688Z,10.72
2019-03-16T20:42:46.628Z,13.32
2019-03-16T20:45:15.740Z,11.70
2019-03-16T20:47:46.128Z,9.78
2019-03-16T20:50:21.340Z,10.65
2019-03-16T20:52:50.355Z,19.05
2019-03-16T20:55:19.180Z,20.20
2019-03-16T20:57:48.030Z,17.57
2019-03-16T21:00:36.786Z,11.80
2019-03-16T21:03:15.478Z,12.13
2019-03-16T21:05:36.185Z,7.42
2019-03-16T21:08:05.104Z,8.78
2019-03-16T21:10:34.099Z,5.47
2019-03-16T21:13:04.113Z,7.30
2019-03-16T21:15:33.011Z,8.45
2019-03-16T21:18:01.998Z,9.35
2019-03-16T21:20:30.888Z,24.65
2019-03-16T21:22:59.987Z,25.85
2019-03-16T21:25:28.977Z,28.50
2019-03-16T21:27:57.969Z,22.00
2019-03-16T21:30:26.964Z,16.90
2019-03-16T21:32:55.958Z,14.55
2019-03-16T21:35:24.949Z,15.32
2019-03-16T21:37:53.774Z,18.25
2019-03-16T21:40:22.830Z,16.07
2019-03-16T21:42:51.700Z,20.95
2019-03-16T21:45:20.613Z,20.37
2019-03-16T21:47:59.455Z,13.72
2019-03-16T21:50:20.139Z,17.35
2019-03-16T21:52:49.130Z,14.95
2019-03-16T21:55:17.983Z,15.95
2019-03-16T21:57:48.152Z,13.48
2019-03-16T22:00:17.937Z,9.78
2019-03-16T22:02:46.947Z,9.63
2019-03-16T22:05:15.938Z,8.40
2019-03-16T22:07:44.933Z,10.28
2019-03-16T22:10:15.461Z,8.50
2019-03-16T22:12:44.458Z,10.15
2019-03-16T22:15:17.155Z,11.03
2019-03-16T22:17:46.367Z,11.68
2019-03-16T22:20:20.041Z,6.95
2019-03-16T22:22:49.028Z,7.58
2019-03-16T22:25:18.022Z,6.83
2019-03-16T22:27:46.903Z,5.70
2019-03-16T22:30:18.563Z,5.97
2019-03-16T22:32:47.457Z,5.87
2019-03-16T22:35:16.364Z,5.08
2019-03-16T22:37:45.443Z,3.83
2019-03-16T22:40:15.161Z,6.05
2019-03-16T22:42:44.323Z,6.30
2019-03-16T22:45:16.208Z,6.08
2019-03-16T22:47:45.102Z,5.15
2019-03-16T22:50:16.246Z,5.20
2019-03-16T22:52:45.243Z,5.40
2019-03-16T22:55:15.825Z,5.92
2019-03-16T22:57:44.832Z,7.10
2019-03-16T23:00:19.639Z,4.90
2019-03-16T23:02:48.769Z,6.08
2019-03-16T23:05:17.676Z,6.97
2019-03-16T23:07:46.570Z,7.67
2019-03-16T23:10:15.578Z,9.38
2019-03-16T23:12:45.060Z,7.85
2019-03-16T23:15:14.017Z,7.80
2019-03-16T23:17:42.949Z,8.50
2019-03-16T23:20:11.842Z,9.98
2019-03-16T23:22:41.731Z,9.80
2019-03-16T23:25:13.301Z,8.05
2019-03-16T23:27:42.201Z,5.35
2019-03-16T23:30:12.521Z,4.72
2019-03-16T23:32:41.332Z,3.40
2019-03-16T23:35:10.408Z,2.98
2019-03-16T23:37:39.402Z,3.55
2019-03-16T23:40:12.397Z,4.22
2019-03-16T23:42:41.384Z,3.60
2019-03-16T23:45:12.527Z,8.33
2019-03-16T23:47:41.410Z,7.15
2019-03-16T23:50:11.886Z,6.45
2019-03-16T23:52:40.833Z,11.45
2019-03-16T23:55:10.528Z,11.33
